Nizhnevartovsk, Russia
Current Conditions -  °F | °C
As of 4:00 AM on Sunday 26 Oct 2014 (Local Time) from USNN Reporting Station
Light Snow Light Snow  
Wind Chill: -7°   Ceiling: 4500
Heat Index:   Visibility: 6mi
Dew Point:   Wind: 9mph
Humidity: 79%   Direction: 220°SW
Pressure: 29.62"   Gusts: NA
Location:  60.93°N, 76.57°E
Report Text: USNN 252300Z 22004MPS 9000 -SN OVC045 M14/M17 Q1003 NOSIG RMKQFE747 21410362
Loading
Personal Weather Stations






























Interactive Weather Map
Tropical Storm Tracking
New forecast layout! Learn more

10-Day Weather Forecast

Advertisements
Track Severe Weather on mobile